sensor_id;sensor_type;location;lat;lon;timestamp;pressure;altitude;pressure_sealevel;temperature;humidity
27685;BME280;46113;50.130;8.526;2023-10-19T00:00:41;97432.94;;;4.75;97.78
27685;BME280;46113;50.130;8.526;2023-10-19T00:03:12;97428.56;;;4.76;98.48
27685;BME280;46113;50.130;8.526;2023-10-19T00:05:39;97417.78;;;4.80;98.45
27685;BME280;46113;50.130;8.526;2023-10-19T00:08:08;97421.00;;;4.71;98.18
27685;BME280;46113;50.130;8.526;2023-10-19T00:10:49;97410.59;;;4.84;97.76
27685;BME280;46113;50.130;8.526;2023-10-19T00:13:20;97402.06;;;4.80;98.57
27685;BME280;46113;50.130;8.526;2023-10-19T00:15:49;97404.31;;;4.87;97.64
27685;BME280;46113;50.130;8.526;2023-10-19T00:18:20;97402.91;;;4.81;97.73
27685;BME280;46113;50.130;8.526;2023-10-19T00:20:50;97402.25;;;4.77;98.80
27685;BME280;46113;50.130;8.526;2023-10-19T00:23:20;97400.00;;;4.86;99.23
27685;BME280;46113;50.130;8.526;2023-10-19T00:25:59;97389.25;;;4.76;98.68
27685;BME280;46113;50.130;8.526;2023-10-19T00:28:27;97379.47;;;4.92;98.98
27685;BME280;46113;50.130;8.526;2023-10-19T00:30:54;97380.78;;;5.00;98.15
27685;BME280;46113;50.130;8.526;2023-10-19T00:33:29;97368.63;;;4.99;98.43
27685;BME280;46113;50.130;8.526;2023-10-19T00:36:00;97369.53;;;4.98;99.02
27685;BME280;46113;50.130;8.526;2023-10-19T00:38:42;97376.16;;;5.03;99.08
27685;BME280;46113;50.130;8.526;2023-10-19T00:41:23;97367.84;;;4.97;99.71
27685;BME280;46113;50.130;8.526;2023-10-19T00:43:58;97367.75;;;4.98;100.00
27685;BME280;46113;50.130;8.526;2023-10-19T00:46:38;97362.97;;;5.05;99.43
27685;BME280;46113;50.130;8.526;2023-10-19T00:49:10;97348.78;;;4.95;99.52
27685;BME280;46113;50.130;8.526;2023-10-19T00:51:42;97349.72;;;4.93;99.93
27685;BME280;46113;50.130;8.526;2023-10-19T00:54:11;97347.28;;;4.90;99.70
27685;BME280;46113;50.130;8.526;2023-10-19T00:56:43;97359.53;;;4.90;99.71
27685;BME280;46113;50.130;8.526;2023-10-19T00:59:18;97371.31;;;4.97;99.16
27685;BME280;46113;50.130;8.526;2023-10-19T01:01:53;97374.44;;;4.89;99.66
27685;BME280;46113;50.130;8.526;2023-10-19T01:04:22;97366.84;;;4.85;100.00
27685;BME280;46113;50.130;8.526;2023-10-19T01:06:50;97358.69;;;4.76;100.00
27685;BME280;46113;50.130;8.526;2023-10-19T01:09:39;97349.31;;;4.72;100.00
27685;BME280;46113;50.130;8.526;2023-10-19T01:12:06;97359.34;;;4.65;100.00
27685;BME280;46113;50.130;8.526;2023-10-19T01:17:35;97352.22;;;4.67;100.00
27685;BME280;46113;50.130;8.526;2023-10-19T01:20:16;97342.50;;;4.70;100.00
27685;BME280;46113;50.130;8.526;2023-10-19T01:22:54;97344.56;;;4.64;100.00
27685;BME280;46113;50.130;8.526;2023-10-19T01:28:10;97333.69;;;4.71;100.00
27685;BME280;46113;50.130;8.526;2023-10-19T01:30:46;97330.91;;;4.74;100.00
27685;BME280;46113;50.130;8.526;2023-10-19T01:33:19;97342.28;;;4.73;100.00
27685;BME280;46113;50.130;8.526;2023-10-19T01:35:46;97340.44;;;4.75;100.00
27685;BME280;46113;50.130;8.526;2023-10-19T01:38:32;97346.88;;;4.69;100.00
27685;BME280;46113;50.130;8.526;2023-10-19T01:41:04;97341.97;;;4.64;100.00
27685;BME280;46113;50.130;8.526;2023-10-19T01:43:44;97327.81;;;4.67;100.00
27685;BME280;46113;50.130;8.526;2023-10-19T01:46:12;97320.47;;;4.59;100.00
27685;BME280;46113;50.130;8.526;2023-10-19T01:48:43;97328.94;;;4.63;100.00
27685;BME280;46113;50.130;8.526;2023-10-19T01:51:13;97325.78;;;4.58;100.00
27685;BME280;46113;50.130;8.526;2023-10-19T01:53:41;97318.84;;;4.71;100.00
27685;BME280;46113;50.130;8.526;2023-10-19T01:56:13;97319.97;;;4.67;100.00
27685;BME280;46113;50.130;8.526;2023-10-19T01:58:42;97325.22;;;4.67;100.00
27685;BME280;46113;50.130;8.526;2023-10-19T02:01:10;97312.56;;;4.74;100.00
27685;BME280;46113;50.130;8.526;2023-10-19T02:03:43;97316.94;;;4.73;100.00
27685;BME280;46113;50.130;8.526;2023-10-19T02:06:11;97317.78;;;4.74;100.00
27685;BME280;46113;50.130;8.526;2023-10-19T02:08:51;97320.00;;;4.80;100.00
27685;BME280;46113;50.130;8.526;2023-10-19T02:11:23;97309.63;;;4.78;100.00
27685;BME280;46113;50.130;8.526;2023-10-19T02:13:52;97308.22;;;4.73;100.00
27685;BME280;46113;50.130;8.526;2023-10-19T02:16:21;97298.09;;;4.81;100.00
27685;BME280;46113;50.130;8.526;2023-10-19T02:18:49;97300.44;;;4.86;100.00
27685;BME280;46113;50.130;8.526;2023-10-19T02:21:18;97289.47;;;4.93;100.00
27685;BME280;46113;50.130;8.526;2023-10-19T02:23:57;97287.13;;;4.89;100.00
27685;BME280;46113;50.130;8.526;2023-10-19T02:26:24;97295.50;;;4.94;100.00
27685;BME280;46113;50.130;8.526;2023-10-19T02:28:54;97280.75;;;5.06;100.00
27685;BME280;46113;50.130;8.526;2023-10-19T02:31:23;97280.75;;;5.06;100.00
27685;BME280;46113;50.130;8.526;2023-10-19T02:33:53;97287.38;;;5.12;100.00
27685;BME280;46113;50.130;8.526;2023-10-19T02:36:27;97286.00;;;5.06;100.00
27685;BME280;46113;50.130;8.526;2023-10-19T02:39:01;97273.75;;;5.06;100.00
27685;BME280;46113;50.130;8.526;2023-10-19T02:41:38;97285.06;;;5.07;100.00
27685;BME280;46113;50.130;8.526;2023-10-19T02:44:09;97278.88;;;5.08;100.00
27685;BME280;46113;50.130;8.526;2023-10-19T02:46:36;97277.19;;;5.07;100.00
27685;BME280;46113;50.130;8.526;2023-10-19T02:49:08;97275.94;;;5.13;100.00
27685;BME280;46113;50.130;8.526;2023-10-19T02:51:41;97274.06;;;5.15;100.00
27685;BME280;46113;50.130;8.526;2023-10-19T02:54:19;97265.25;;;5.16;100.00
27685;BME280;46113;50.130;8.526;2023-10-19T02:56:55;97260.00;;;5.03;100.00
27685;BME280;46113;50.130;8.526;2023-10-19T02:59:27;97248.69;;;5.15;100.00
27685;BME280;46113;50.130;8.526;2023-10-19T03:02:00;97258.84;;;5.07;100.00
27685;BME280;46113;50.130;8.526;2023-10-19T03:04:43;97250.56;;;5.13;100.00
27685;BME280;46113;50.130;8.526;2023-10-19T03:07:10;97249.41;;;5.30;100.00
27685;BME280;46113;50.130;8.526;2023-10-19T03:09:39;97250.59;;;5.26;100.00
27685;BME280;46113;50.130;8.526;2023-10-19T03:12:06;97246.59;;;5.33;100.00
27685;BME280;46113;50.130;8.526;2023-10-19T03:14:37;97246.19;;;5.40;100.00
27685;BME280;46113;50.130;8.526;2023-10-19T03:17:04;97241.47;;;5.45;100.00
27685;BME280;46113;50.130;8.526;2023-10-19T03:19:34;97243.28;;;5.44;100.00
27685;BME280;46113;50.130;8.526;2023-10-19T03:22:01;97231.75;;;5.47;100.00
27685;BME280;46113;50.130;8.526;2023-10-19T03:24:32;97231.41;;;5.39;100.00
27685;BME280;46113;50.130;8.526;2023-10-19T03:27:11;97237.09;;;5.45;100.00
27685;BME280;46113;50.130;8.526;2023-10-19T03:29:52;97231.63;;;5.49;100.00
27685;BME280;46113;50.130;8.526;2023-10-19T03:32:24;97225.84;;;5.56;100.00
27685;BME280;46113;50.130;8.526;2023-10-19T03:34:55;97230.03;;;5.59;100.00
27685;BME280;46113;50.130;8.526;2023-10-19T03:37:24;97224.91;;;5.57;100.00
27685;BME280;46113;50.130;8.526;2023-10-19T03:39:52;97209.59;;;5.64;100.00
27685;BME280;46113;50.130;8.526;2023-10-19T03:42:23;97215.03;;;5.61;100.00
27685;BME280;46113;50.130;8.526;2023-10-19T03:44:56;97214.69;;;5.66;100.00
27685;BME280;46113;50.130;8.526;2023-10-19T03:47:24;97207.25;;;5.72;100.00
27685;BME280;46113;50.130;8.526;2023-10-19T03:50:02;97216.69;;;5.75;100.00
27685;BME280;46113;50.130;8.526;2023-10-19T03:52:41;97210.06;;;5.82;100.00
27685;BME280;46113;50.130;8.526;2023-10-19T03:55:08;97210.38;;;5.78;100.00
27685;BME280;46113;50.130;8.526;2023-10-19T03:57:39;97212.69;;;5.82;100.00
27685;BME280;46113;50.130;8.526;2023-10-19T04:00:16;97208.38;;;5.81;100.00
27685;BME280;46113;50.130;8.526;2023-10-19T04:02:48;97210.06;;;5.82;100.00
27685;BME280;46113;50.130;8.526;2023-10-19T04:05:19;97201.97;;;5.85;100.00
27685;BME280;46113;50.130;8.526;2023-10-19T04:07:49;97205.75;;;5.81;100.00
27685;BME280;46113;50.130;8.526;2023-10-19T04:10:18;97206.59;;;5.82;100.00
27685;BME280;46113;50.130;8.526;2023-10-19T04:13:01;97203.53;;;5.88;100.00
27685;BME280;46113;50.130;8.526;2023-10-19T04:15:30;97193.13;;;5.86;100.00
27685;BME280;46113;50.130;8.526;2023-10-19T04:18:02;97194.69;;;5.89;100.00
27685;BME280;46113;50.130;8.526;2023-10-19T04:20:37;97188.75;;;5.87;100.00
27685;BME280;46113;50.130;8.526;2023-10-19T04:23:16;97190.31;;;5.90;100.00
27685;BME280;46113;50.130;8.526;2023-10-19T04:25:43;97193.78;;;5.90;100.00
27685;BME280;46113;50.130;8.526;2023-10-19T04:28:13;97197.47;;;5.88;100.00
27685;BME280;46113;50.130;8.526;2023-10-19T04:30:40;97190.81;;;5.95;100.00
27685;BME280;46113;50.130;8.526;2023-10-19T04:33:07;97184.41;;;5.99;100.00
27685;BME280;46113;50.130;8.526;2023-10-19T04:35:37;97181.97;;;5.96;100.00
27685;BME280;46113;50.130;8.526;2023-10-19T04:38:05;97185.00;;;6.03;100.00
27685;BME280;46113;50.130;8.526;2023-10-19T04:40:34;97184.06;;;6.04;100.00
27685;BME280;46113;50.130;8.526;2023-10-19T04:43:03;97183.09;;;6.05;100.00
27685;BME280;46113;50.130;8.526;2023-10-19T04:45:32;97180.38;;;6.06;100.00
27685;BME280;46113;50.130;8.526;2023-10-19T04:47:59;97179.31;;;6.09;100.00
27685;BME280;46113;50.130;8.526;2023-10-19T04:50:26;97187.59;;;6.16;100.00
27685;BME280;46113;50.130;8.526;2023-10-19T04:52:53;97175.41;;;6.15;100.00
27685;BME280;46113;50.130;8.526;2023-10-19T04:55:21;97163.13;;;6.15;100.00
27685;BME280;46113;50.130;8.526;2023-10-19T04:57:48;97175.31;;;6.16;100.00
27685;BME280;46113;50.130;8.526;2023-10-19T05:00:17;97167.44;;;6.16;100.00
27685;BME280;46113;50.130;8.526;2023-10-19T05:02:47;97163.63;;;6.20;100.00
27685;BME280;46113;50.130;8.526;2023-10-19T05:05:14;97165.06;;;6.24;100.00
27685;BME280;46113;50.130;8.526;2023-10-19T05:07:44;97156.13;;;6.27;100.00
27685;BME280;46113;50.130;8.526;2023-10-19T05:10:11;97146.94;;;6.21;100.00
27685;BME280;46113;50.130;8.526;2023-10-19T05:12:39;97151.44;;;6.19;100.00
27685;BME280;46113;50.130;8.526;2023-10-19T05:15:07;97151.88;;;6.13;100.00
27685;BME280;46113;50.130;8.526;2023-10-19T05:17:35;97152.00;;;6.11;100.00
27685;BME280;46113;50.130;8.526;2023-10-19T05:20:05;97157.13;;;6.13;100.00
27685;BME280;46113;50.130;8.526;2023-10-19T05:22:34;97151.06;;;6.12;100.00
27685;BME280;46113;50.130;8.526;2023-10-19T05:25:01;97147.38;;;6.15;100.00
27685;BME280;46113;50.130;8.526;2023-10-19T05:27:28;97144.00;;;6.13;100.00
27685;BME280;46113;50.130;8.526;2023-10-19T05:29:55;97147.38;;;6.15;100.00
27685;BME280;46113;50.130;8.526;2023-10-19T05:32:21;97148.66;;;6.09;100.00
27685;BME280;46113;50.130;8.526;2023-10-19T05:34:49;97141.09;;;6.05;100.00
27685;BME280;46113;50.130;8.526;2023-10-19T05:37:16;97150.28;;;5.99;100.00
27685;BME280;46113;50.130;8.526;2023-10-19T05:39:43;97145.69;;;5.90;100.00
27685;BME280;46113;50.130;8.526;2023-10-19T05:42:11;97143.63;;;5.82;100.00
27685;BME280;46113;50.130;8.526;2023-10-19T05:44:37;97144.16;;;5.74;100.00
27685;BME280;46113;50.130;8.526;2023-10-19T05:47:04;97150.81;;;5.67;100.00
27685;BME280;46113;50.130;8.526;2023-10-19T05:49:32;97153.66;;;5.64;100.00
27685;BME280;46113;50.130;8.526;2023-10-19T05:51:59;97163.28;;;5.63;100.00
27685;BME280;46113;50.130;8.526;2023-10-19T05:54:26;97162.47;;;5.63;100.00
27685;BME280;46113;50.130;8.526;2023-10-19T05:56:53;97163.53;;;5.60;100.00
27685;BME280;46113;50.130;8.526;2023-10-19T05:59:20;97170.53;;;5.59;100.00
27685;BME280;46113;50.130;8.526;2023-10-19T06:01:47;97177.16;;;5.65;100.00
27685;BME280;46113;50.130;8.526;2023-10-19T06:04:15;97184.59;;;5.71;100.00
27685;BME280;46113;50.130;8.526;2023-10-19T06:06:47;97188.66;;;5.76;100.00
27685;BME280;46113;50.130;8.526;2023-10-19T06:09:15;97187.38;;;5.81;100.00
27685;BME280;46113;50.130;8.526;2023-10-19T06:11:42;97177.63;;;5.83;100.00
27685;BME280;46113;50.130;8.526;2023-10-19T06:14:10;97167.03;;;5.85;100.00
27685;BME280;46113;50.130;8.526;2023-10-19T06:16:37;97160.47;;;5.91;100.00
27685;BME280;46113;50.130;8.526;2023-10-19T06:19:04;97162.78;;;5.95;100.00
27685;BME280;46113;50.130;8.526;2023-10-19T06:21:32;97174.09;;;5.96;100.00
27685;BME280;46113;50.130;8.526;2023-10-19T06:24:00;97169.88;;;6.06;100.00
27685;BME280;46113;50.130;8.526;2023-10-19T06:26:27;97162.69;;;6.21;100.00
27685;BME280;46113;50.130;8.526;2023-10-19T06:28:54;97151.16;;;6.35;100.00
27685;BME280;46113;50.130;8.526;2023-10-19T06:31:25;97154.44;;;6.50;100.00
27685;BME280;46113;50.130;8.526;2023-10-19T06:33:52;97153.88;;;6.58;100.00
27685;BME280;46113;50.130;8.526;2023-10-19T06:36:19;97156.03;;;6.64;100.00
27685;BME280;46113;50.130;8.526;2023-10-19T06:38:46;97157.47;;;6.69;100.00
27685;BME280;46113;50.130;8.526;2023-10-19T06:41:13;97155.19;;;6.75;100.00
27685;BME280;46113;50.130;8.526;2023-10-19T06:43:40;97145.53;;;6.87;100.00
27685;BME280;46113;50.130;8.526;2023-10-19T06:46:08;97154.50;;;6.85;100.00
27685;BME280;46113;50.130;8.526;2023-10-19T06:48:39;97154.00;;;6.79;100.00
27685;BME280;46113;50.130;8.526;2023-10-19T06:51:05;97155.56;;;6.82;100.00
27685;BME280;46113;50.130;8.526;2023-10-19T06:53:32;97156.31;;;6.84;100.00
27685;BME280;46113;50.130;8.526;2023-10-19T06:56:00;97154.41;;;6.86;100.00
27685;BME280;46113;50.130;8.526;2023-10-19T06:58:27;97161.09;;;6.90;100.00
27685;BME280;46113;50.130;8.526;2023-10-19T07:00:54;97155.84;;;6.90;100.00
27685;BME280;46113;50.130;8.526;2023-10-19T07:03:26;97169.84;;;6.91;100.00
27685;BME280;46113;50.130;8.526;2023-10-19T07:05:55;97167.28;;;6.78;100.00
27685;BME280;46113;50.130;8.526;2023-10-19T07:08:23;97170.03;;;6.76;100.00
27685;BME280;46113;50.130;8.526;2023-10-19T07:10:50;97168.81;;;6.81;100.00
27685;BME280;46113;50.130;8.526;2023-10-19T07:13:17;97173.53;;;6.88;100.00
27685;BME280;46113;50.130;8.526;2023-10-19T07:15:48;97177.00;;;7.00;100.00
27685;BME280;46113;50.130;8.526;2023-10-19T07:18:16;97187.38;;;6.90;100.00
27685;BME280;46113;50.130;8.526;2023-10-19T07:20:43;97177.28;;;7.09;100.00
27685;BME280;46113;50.130;8.526;2023-10-19T07:23:10;97177.41;;;7.18;100.00
27685;BME280;46113;50.130;8.526;2023-10-19T07:25:45;97182.59;;;7.31;100.00
27685;BME280;46113;50.130;8.526;2023-10-19T07:28:17;97175.88;;;7.39;100.00
27685;BME280;46113;50.130;8.526;2023-10-19T07:30:44;97173.81;;;7.54;100.00
27685;BME280;46113;50.130;8.526;2023-10-19T07:33:11;97173.38;;;7.60;100.00
27685;BME280;46113;50.130;8.526;2023-10-19T07:35:46;97169.13;;;7.80;100.00
27685;BME280;46113;50.130;8.526;2023-10-19T07:38:14;97172.94;;;7.99;100.00
27685;BME280;46113;50.130;8.526;2023-10-19T07:40:44;97174.38;;;8.03;100.00
27685;BME280;46113;50.130;8.526;2023-10-19T07:43:11;97177.88;;;8.25;100.00
27685;BME280;46113;50.130;8.526;2023-10-19T07:45:38;97171.59;;;8.49;99.83
27685;BME280;46113;50.130;8.526;2023-10-19T07:48:05;97174.88;;;8.30;97.72
27685;BME280;46113;50.130;8.526;2023-10-19T07:50:37;97171.53;;;8.60;97.36
27685;BME280;46113;50.130;8.526;2023-10-19T07:53:04;97166.41;;;8.80;96.70
27685;BME280;46113;50.130;8.526;2023-10-19T07:55:31;97168.78;;;9.05;95.29
27685;BME280;46113;50.130;8.526;2023-10-19T07:57:58;97155.91;;;9.11;94.63
27685;BME280;46113;50.130;8.526;2023-10-19T08:00:30;97160.53;;;9.19;96.24
27685;BME280;46113;50.130;8.526;2023-10-19T08:02:57;97161.94;;;9.64;94.17
27685;BME280;46113;50.130;8.526;2023-10-19T08:05:25;97164.66;;;9.84;91.00
27685;BME280;46113;50.130;8.526;2023-10-19T08:07:53;97161.88;;;9.76;91.71
27685;BME280;46113;50.130;8.526;2023-10-19T08:10:20;97156.34;;;9.89;92.87
27685;BME280;46113;50.130;8.526;2023-10-19T08:12:49;97157.94;;;10.11;88.05
27685;BME280;46113;50.130;8.526;2023-10-19T08:15:17;97158.19;;;9.98;87.31
27685;BME280;46113;50.130;8.526;2023-10-19T08:17:47;97159.13;;;9.87;87.46
27685;BME280;46113;50.130;8.526;2023-10-19T08:20:15;97166.13;;;9.67;89.98
27685;BME280;46113;50.130;8.526;2023-10-19T08:22:59;97161.81;;;9.66;88.91
27685;BME280;46113;50.130;8.526;2023-10-19T08:25:28;97161.28;;;9.31;91.46
27685;BME280;46113;50.130;8.526;2023-10-19T08:28:15;97168.56;;;9.49;89.85
27685;BME280;46113;50.130;8.526;2023-10-19T08:30:42;97171.06;;;9.50;90.39
27685;BME280;46113;50.130;8.526;2023-10-19T08:33:11;97165.13;;;9.27;91.52
27685;BME280;46113;50.130;8.526;2023-10-19T08:35:40;97157.31;;;9.47;90.91
27685;BME280;46113;50.130;8.526;2023-10-19T08:38:07;97156.56;;;9.35;91.41
27685;BME280;46113;50.130;8.526;2023-10-19T08:40:38;97153.16;;;9.23;91.07
27685;BME280;46113;50.130;8.526;2023-10-19T08:43:06;97157.78;;;8.99;93.35
27685;BME280;46113;50.130;8.526;2023-10-19T08:45:41;97162.50;;;9.27;93.19
27685;BME280;46113;50.130;8.526;2023-10-19T08:48:08;97150.25;;;9.47;93.15
27685;BME280;46113;50.130;8.526;2023-10-19T08:50:36;97155.38;;;9.90;93.23
27685;BME280;46113;50.130;8.526;2023-10-19T08:53:06;97149.03;;;10.42;92.56
27685;BME280;46113;50.130;8.526;2023-10-19T08:55:35;97139.06;;;11.03;88.44
27685;BME280;46113;50.130;8.526;2023-10-19T08:58:05;97138.28;;;11.31;84.12
27685;BME280;46113;50.130;8.526;2023-10-19T09:00:51;97141.66;;;11.33;83.05
27685;BME280;46113;50.130;8.526;2023-10-19T09:03:24;97138.53;;;11.47;83.65
27685;BME280;46113;50.130;8.526;2023-10-19T09:05:53;97144.88;;;11.54;82.57
27685;BME280;46113;50.130;8.526;2023-10-19T09:12:43;97146.41;;;11.85;81.35
27685;BME280;46113;50.130;8.526;2023-10-19T09:20:41;97137.97;;;12.18;82.42
27685;BME280;46113;50.130;8.526;2023-10-19T09:24:33;97134.41;;;12.27;80.83
27685;BME280;46113;50.130;8.526;2023-10-19T09:31:56;97114.66;;;12.22;80.35
27685;BME280;46113;50.130;8.526;2023-10-19T09:44:19;97108.56;;;11.93;82.57
27685;BME280;46113;50.130;8.526;2023-10-19T09:48:05;97100.66;;;11.65;85.82
27685;BME280;46113;50.130;8.526;2023-10-19T09:51:38;97098.09;;;11.73;86.33
27685;BME280;46113;50.130;8.526;2023-10-19T10:02:51;97079.84;;;11.70;85.54
27685;BME280;46113;50.130;8.526;2023-10-19T10:07:04;97083.34;;;11.43;86.31
27685;BME280;46113;50.130;8.526;2023-10-19T10:10:29;97079.72;;;11.44;87.24
27685;BME280;46113;50.130;8.526;2023-10-19T10:13:58;97085.25;;;11.78;86.65
27685;BME280;46113;50.130;8.526;2023-10-19T10:16:27;97077.59;;;11.75;87.40
27685;BME280;46113;50.130;8.526;2023-10-19T10:18:59;97079.72;;;11.90;86.84
27685;BME280;46113;50.130;8.526;2023-10-19T10:22:09;97077.91;;;11.90;86.05
27685;BME280;46113;50.130;8.526;2023-10-19T10:25:30;97078.66;;;11.83;87.98
27685;BME280;46113;50.130;8.526;2023-10-19T10:31:41;97074.25;;;12.46;87.75
27685;BME280;46113;50.130;8.526;2023-10-19T10:37:48;97062.88;;;12.80;83.12
27685;BME280;46113;50.130;8.526;2023-10-19T10:40:28;97059.97;;;12.65;84.56
27685;BME280;46113;50.130;8.526;2023-10-19T10:43:22;97066.56;;;12.88;85.75
27685;BME280;46113;50.130;8.526;2023-10-19T10:46:20;97055.59;;;13.52;81.67
27685;BME280;46113;50.130;8.526;2023-10-19T10:48:48;97054.47;;;13.63;79.38
27685;BME280;46113;50.130;8.526;2023-10-19T10:51:25;97064.66;;;13.33;79.92
27685;BME280;46113;50.130;8.526;2023-10-19T10:53:55;97064.19;;;13.37;80.45
27685;BME280;46113;50.130;8.526;2023-10-19T10:56:23;97061.47;;;13.21;80.55
27685;BME280;46113;50.130;8.526;2023-10-19T10:59:31;97064.25;;;13.62;79.15
27685;BME280;46113;50.130;8.526;2023-10-19T11:01:58;97063.59;;;13.69;79.29
27685;BME280;46113;50.130;8.526;2023-10-19T11:04:25;97067.53;;;13.48;80.82
27685;BME280;46113;50.130;8.526;2023-10-19T11:06:54;97077.75;;;13.34;80.70
27685;BME280;46113;50.130;8.526;2023-10-19T11:09:23;97073.13;;;13.02;81.98
27685;BME280;46113;50.130;8.526;2023-10-19T11:11:50;97067.78;;;13.28;81.87
27685;BME280;46113;50.130;8.526;2023-10-19T11:14:19;97065.56;;;13.15;82.02
27685;BME280;46113;50.130;8.526;2023-10-19T11:16:45;97061.19;;;13.06;81.28
27685;BME280;46113;50.130;8.526;2023-10-19T11:19:12;97061.38;;;13.04;81.37
27685;BME280;46113;50.130;8.526;2023-10-19T11:21:51;97053.16;;;13.24;82.22
27685;BME280;46113;50.130;8.526;2023-10-19T11:24:26;97051.22;;;12.99;82.00
27685;BME280;46113;50.130;8.526;2023-10-19T11:26:53;97043.25;;;12.99;82.45
27685;BME280;46113;50.130;8.526;2023-10-19T11:29:21;97051.28;;;12.81;83.31
27685;BME280;46113;50.130;8.526;2023-10-19T11:32:01;97054.25;;;12.52;85.72
27685;BME280;46113;50.130;8.526;2023-10-19T11:34:29;97046.69;;;12.65;85.25
27685;BME280;46113;50.130;8.526;2023-10-19T11:36:57;97051.56;;;12.70;84.80
27685;BME280;46113;50.130;8.526;2023-10-19T11:39:26;97048.84;;;12.62;85.11
27685;BME280;46113;50.130;8.526;2023-10-19T11:41:53;97049.69;;;12.62;85.77
27685;BME280;46113;50.130;8.526;2023-10-19T11:44:22;97045.88;;;12.65;86.50
27685;BME280;46113;50.130;8.526;2023-10-19T11:46:54;97049.00;;;12.60;86.71
27685;BME280;46113;50.130;8.526;2023-10-19T11:49:23;97047.91;;;12.44;87.22
27685;BME280;46113;50.130;8.526;2023-10-19T11:51:54;97049.84;;;12.60;87.61
27685;BME280;46113;50.130;8.526;2023-10-19T11:54:27;97047.13;;;12.79;88.08
27685;BME280;46113;50.130;8.526;2023-10-19T11:57:20;97040.53;;;13.09;86.70
27685;BME280;46113;50.130;8.526;2023-10-19T12:04:44;97033.94;;;12.60;84.38
27685;BME280;46113;50.130;8.526;2023-10-19T12:07:11;97027.94;;;12.58;85.07
27685;BME280;46113;50.130;8.526;2023-10-19T12:09:41;97023.88;;;12.46;84.73
27685;BME280;46113;50.130;8.526;2023-10-19T12:12:11;97023.03;;;12.45;84.49
27685;BME280;46113;50.130;8.526;2023-10-19T12:14:39;97026.22;;;12.23;85.17
27685;BME280;46113;50.130;8.526;2023-10-19T12:17:09;97014.06;;;12.38;85.78
27685;BME280;46113;50.130;8.526;2023-10-19T12:20:15;97017.78;;;12.27;86.30
27685;BME280;46113;50.130;8.526;2023-10-19T12:23:15;97009.63;;;12.47;85.40
27685;BME280;46113;50.130;8.526;2023-10-19T12:26:00;97008.59;;;12.66;85.86
27685;BME280;46113;50.130;8.526;2023-10-19T12:28:59;97007.81;;;12.74;83.48
27685;BME280;46113;50.130;8.526;2023-10-19T12:35:00;97014.06;;;12.65;82.58
27685;BME280;46113;50.130;8.526;2023-10-19T12:37:46;97012.41;;;12.64;82.42
27685;BME280;46113;50.130;8.526;2023-10-19T12:41:04;97005.69;;;12.51;82.67
27685;BME280;46113;50.130;8.526;2023-10-19T12:44:28;97010.00;;;12.26;84.33
27685;BME280;46113;50.130;8.526;2023-10-19T12:47:01;97005.53;;;12.26;84.25
27685;BME280;46113;50.130;8.526;2023-10-19T12:49:42;96998.63;;;12.15;84.35
27685;BME280;46113;50.130;8.526;2023-10-19T12:52:34;96999.84;;;12.03;85.98
27685;BME280;46113;50.130;8.526;2023-10-19T12:55:20;96997.81;;;12.15;86.33
27685;BME280;46113;50.130;8.526;2023-10-19T12:57:53;96999.63;;;12.14;87.04
27685;BME280;46113;50.130;8.526;2023-10-19T13:00:43;96995.84;;;11.99;87.48
27685;BME280;46113;50.130;8.526;2023-10-19T13:07:28;96997.59;;;11.90;88.21
27685;BME280;46113;50.130;8.526;2023-10-19T13:10:02;96995.31;;;11.95;87.31
27685;BME280;46113;50.130;8.526;2023-10-19T13:12:35;96988.66;;;11.91;88.12
27685;BME280;46113;50.130;8.526;2023-10-19T13:15:06;96981.78;;;11.80;87.46
27685;BME280;46113;50.130;8.526;2023-10-19T13:17:39;96972.50;;;12.02;87.26
27685;BME280;46113;50.130;8.526;2023-10-19T13:20:07;96979.34;;;12.05;86.67
27685;BME280;46113;50.130;8.526;2023-10-19T13:22:42;96973.91;;;12.06;87.32
27685;BME280;46113;50.130;8.526;2023-10-19T13:25:11;96981.59;;;12.00;88.66
27685;BME280;46113;50.130;8.526;2023-10-19T13:27:44;96967.47;;;12.09;88.83
27685;BME280;46113;50.130;8.526;2023-10-19T13:30:12;96966.66;;;12.09;88.22
27685;BME280;46113;50.130;8.526;2023-10-19T13:32:39;96956.94;;;11.99;88.70
27685;BME280;46113;50.130;8.526;2023-10-19T13:35:06;96954.44;;;12.16;88.69
27685;BME280;46113;50.130;8.526;2023-10-19T13:37:33;96958.22;;;11.95;89.48
27685;BME280;46113;50.130;8.526;2023-10-19T13:40:00;96953.03;;;12.03;89.39
27685;BME280;46113;50.130;8.526;2023-10-19T13:42:28;96942.47;;;11.93;90.58
27685;BME280;46113;50.130;8.526;2023-10-19T13:44:55;96944.34;;;12.01;89.95
27685;BME280;46113;50.130;8.526;2023-10-19T13:47:26;96946.59;;;11.88;91.27
27685;BME280;46113;50.130;8.526;2023-10-19T13:49:53;96940.59;;;11.86;91.96
27685;BME280;46113;50.130;8.526;2023-10-19T13:52:23;96944.91;;;11.87;91.63
27685;BME280;46113;50.130;8.526;2023-10-19T13:54:54;96943.72;;;11.81;92.67
27685;BME280;46113;50.130;8.526;2023-10-19T13:57:24;96936.81;;;11.88;92.74
27685;BME280;46113;50.130;8.526;2023-10-19T13:59:51;96943.09;;;11.87;93.12
27685;BME280;46113;50.130;8.526;2023-10-19T14:02:19;96943.94;;;11.88;93.08
27685;BME280;46113;50.130;8.526;2023-10-19T14:04:47;96937.81;;;11.87;93.21
27685;BME280;46113;50.130;8.526;2023-10-19T14:07:14;96934.84;;;11.90;93.07
27685;BME280;46113;50.130;8.526;2023-10-19T14:09:40;96928.41;;;11.93;91.65
27685;BME280;46113;50.130;8.526;2023-10-19T14:12:07;96937.72;;;11.79;92.92
27685;BME280;46113;50.130;8.526;2023-10-19T14:14:35;96934.16;;;11.88;92.35
27685;BME280;46113;50.130;8.526;2023-10-19T14:17:01;96932.91;;;11.74;94.09
27685;BME280;46113;50.130;8.526;2023-10-19T14:19:28;96940.63;;;11.67;95.71
27685;BME280;46113;50.130;8.526;2023-10-19T14:21:59;96938.66;;;11.70;95.33
27685;BME280;46113;50.130;8.526;2023-10-19T14:24:25;96944.72;;;11.80;94.70
27685;BME280;46113;50.130;8.526;2023-10-19T14:26:52;96946.81;;;11.76;95.25
27685;BME280;46113;50.130;8.526;2023-10-19T14:29:20;96940.16;;;11.72;95.70
27685;BME280;46113;50.130;8.526;2023-10-19T14:31:47;96937.47;;;11.64;96.59